Frankfurt / M-Flughafen, Germany (EDDF) 50-03N 008-36E 113M
May 27, 2024 - 05:50 PM EDT / 2024.05.27 2150 UTC
Wind: from the W (270 degrees) at 7 MPH (6 KT):0
Visibility: greater than 7 mile(s):0
Sky conditions: mostly clear
Temperature: 59 F (15 C)
Dew Point: 55 F (13 C)
Relative Humidity: 87%
Pressure (altimeter): 30.03 in. Hg (1017 hPa)
ob: EDDF 272150Z AUTO 27006KT 9999 FEW049 15/13 Q1017 NOSIG
cycle: 22